Niamey, Niger
Current Conditions -  °F | °C
As of 11:00 PM on Thursday 27 Nov 2014 (Local Time) from DRRN Reporting Station
Sand / Dust Storm Sand / Dust Storm  
Wind Chill: 77°   Ceiling: Unl
Heat Index: 77°   Visibility: 3mi
Dew Point: 34°   Wind: 0mph
Humidity: 21%   Direction: NA
Pressure: 29.88"   Gusts: NA
Location:  13.52°N, 2.12°E
Report Text: DRRN 272200Z 00000KT 5000 DU NSC 25/01 Q1012 NOSIG
Loading
Personal Weather Stations






























Interactive Weather Map New forecast layout! Learn more

10-Day Weather Forecast

Advertisements
Track Severe Weather on mobile